Weather History for KDLZ - March, 2013

Change the Weather History Date:

Tuesday, March 5, 2013

  Actual Average Record
Temperature  
Mean Temperature 32 °F -  
Max Temperature 35 °F 49 °F 78 °F (1983)
Min Temperature 30 °F 26 °F -4 °F (1978)
Degree Days  
Heating Degree Days 32    
Moisture  
Dew Point 27 °F    
Average Humidity 79    
Maximum Humidity 93    
Minimum Humidity 65    
Precipitation  
Precipitation 0.03 in - - ()
Sea Level Pressure  
Sea Level Pressure 29.83 in    
Wind  
Wind Speed 7 mph (East)    
Max Wind Speed 16 mph    
Max Gust Speed 22 mph    
Visibility 8 miles    
Events Rain , Snow    
Averages and records for this station are not official NWS values.
T = Trace of Precipitation, MM = Missing Value Source: NWS Daily Summary

Daily Weather History Graph

Daily Weather History Graph

Search for Another Location

Airport or City:

Trip Planner

Search our weather history database for the weather conditions in past years. The results will help you decide how hot, cold, wet, or windy it might be!

Date:

Astronomy

Mar. 05, 2013 Rise Set
Actual Time 6:59 AM EST 6:28 PM EST
Civil Twilight 6:32 AM EST 6:56 PM EST
Nautical Twilight 6:00 AM EST 7:27 PM EST
Astronomical Twilight 5:29 AM EST 7:59 PM EST
Moon 2:11 AM EST (3/5) 12:06 PM EST (3/5)
Length of Visible Light 12h 23m
Length of Day
11h 29m
Last Quarter, 41% of the Moon is Illuminated
Mar 5
Last Quarter
Mar 11
New
Mar 19
First Quarter
Mar 27
Full
Apr 3
Last Quarter

Hourly Weather History & Observations

Time (EST) Temp. Windchill Dew Point Humidity Pressure Visibility Wind Dir Wind Speed Gust Speed Precip Events Conditions
12:14 AM 32.0 °F - 23.0 °F 69% 30.06 in 10.0 mi Calm Calm - N/A   Overcast
12:34 AM 32.0 °F 25.6 °F 23.0 °F 69% 30.07 in 10.0 mi SW 6.9 mph - N/A   Overcast
12:53 AM 32.0 °F 28.7 °F 23.0 °F 69% 30.07 in 10.0 mi West 3.5 mph - N/A   Overcast
1:14 AM 32.0 °F 24.2 °F 23.0 °F 69% 30.08 in 10.0 mi WSW 9.2 mph - N/A Snow Light Snow
1:34 AM 32.0 °F 26.4 °F 28.4 °F 87% 30.08 in 5.0 mi SW 5.8 mph - N/A Snow Light Snow
1:53 AM 30.2 °F 26.7 °F 28.4 °F 93% 30.08 in 5.0 mi SSW 3.5 mph - N/A Snow Light Snow
2:14 AM 30.2 °F - 28.4 °F 93% 30.07 in 4.0 mi Calm Calm - N/A Snow Light Snow
2:34 AM 30.2 °F - 28.4 °F 93% 30.06 in 5.0 mi Calm Calm - N/A Snow Light Snow
2:53 AM 30.2 °F 26.7 °F 28.4 °F 93% 30.05 in 5.0 mi East 3.5 mph - N/A Snow Light Snow
3:14 AM 30.2 °F 25.4 °F 28.4 °F 93% 30.03 in 5.0 mi East 4.6 mph - N/A Snow Light Snow
3:34 AM 30.2 °F 23.4 °F 28.4 °F 93% 30.03 in 10.0 mi East 6.9 mph - N/A   Overcast
3:53 AM 30.2 °F 24.3 °F 26.6 °F 86% 30.02 in 10.0 mi East 5.8 mph - N/A   Overcast
4:14 AM 30.2 °F 23.4 °F 26.6 °F 86% 30.01 in 10.0 mi East 6.9 mph - N/A   Overcast
4:34 AM 30.2 °F 21.9 °F 26.6 °F 86% 30.00 in 10.0 mi East 9.2 mph - N/A   Overcast
4:53 AM 30.2 °F 23.4 °F 26.6 °F 86% 30.00 in 10.0 mi East 6.9 mph - N/A   Overcast
5:14 AM 30.2 °F 22.6 °F 26.6 °F 86% 30.00 in 10.0 mi East 8.1 mph - N/A   Overcast
5:34 AM 30.2 °F 22.6 °F 26.6 °F 86% 29.99 in 10.0 mi East 8.1 mph - N/A   Overcast
5:53 AM 30.2 °F 23.4 °F 26.6 °F 86% 29.99 in 10.0 mi East 6.9 mph - N/A   Overcast
6:14 AM 30.2 °F 23.4 °F 26.6 °F 86% 29.98 in 10.0 mi East 6.9 mph - N/A   Overcast
6:33 AM 30.2 °F 22.6 °F 26.6 °F 86% 29.98 in 10.0 mi East 8.1 mph - N/A   Overcast
6:54 AM 30.2 °F 23.4 °F 26.6 °F 86% 29.98 in 10.0 mi East 6.9 mph - N/A   Overcast
7:14 AM 30.2 °F 22.6 °F 26.6 °F 86% 29.97 in 10.0 mi East 8.1 mph - N/A   Overcast
8:14 AM 32.0 °F 24.8 °F 24.8 °F 75% 29.97 in 10.0 mi East 8.1 mph - N/A   Overcast
8:33 AM 32.0 °F 24.8 °F 24.8 °F 75% 29.98 in 10.0 mi East 8.1 mph - N/A   Overcast
8:54 AM 32.0 °F 24.2 °F 23.0 °F 69% 29.98 in 10.0 mi East 9.2 mph - N/A   Overcast
9:14 AM 32.0 °F 24.2 °F 23.0 °F 69% 29.97 in 10.0 mi East 9.2 mph - N/A   Overcast
9:33 AM 32.0 °F 24.8 °F 23.0 °F 69% 29.97 in 10.0 mi East 8.1 mph - N/A   Overcast
9:54 AM 32.0 °F 25.6 °F 23.0 °F 69% 29.96 in 10.0 mi East 6.9 mph - N/A   Overcast
10:14 AM 32.0 °F 24.2 °F 23.0 °F 69% 29.95 in 7.0 mi East 9.2 mph - N/A Snow Light Snow
10:33 AM 32.0 °F 24.2 °F 24.8 °F 75% 29.94 in 7.0 mi East 9.2 mph - N/A   Overcast
10:54 AM 32.0 °F 23.6 °F 23.0 °F 69% 29.93 in 10.0 mi ESE 10.4 mph - N/A   Overcast
11:14 AM 32.0 °F 23.0 °F 23.0 °F 69% 29.92 in 10.0 mi ESE 11.5 mph - N/A   Overcast
11:33 AM 33.8 °F 25.3 °F 26.6 °F 75% 29.91 in 10.0 mi East 11.5 mph - N/A Rain Light Rain
11:54 AM 33.8 °F 24.8 °F 26.6 °F 75% 29.90 in 10.0 mi ESE 12.7 mph - N/A   Light Drizzle
12:14 PM 33.8 °F 25.3 °F 26.6 °F 75% 29.88 in 10.0 mi East 11.5 mph - N/A Rain Rain
12:33 PM 33.8 °F 24.8 °F 26.6 °F 75% 29.87 in 10.0 mi ESE 12.7 mph - N/A   Overcast
12:54 PM 33.8 °F 24.8 °F 26.6 °F 75% 29.85 in 10.0 mi ESE 12.7 mph - N/A   Overcast
1:14 PM 33.8 °F 24.3 °F 26.6 °F 75% 29.83 in 10.0 mi East 13.8 mph 17.3 mph N/A   Drizzle
1:34 PM 33.8 °F 24.3 °F 28.4 °F 81% 29.80 in 10.0 mi East 13.8 mph - N/A   Light Drizzle
1:54 PM 33.8 °F 24.3 °F 26.6 °F 75% 29.80 in 10.0 mi East 13.8 mph - N/A   Light Drizzle
2:14 PM 33.8 °F 24.8 °F 26.6 °F 75% 29.79 in 10.0 mi East 12.7 mph - N/A   Light Drizzle
2:34 PM 33.8 °F 25.8 °F 26.6 °F 75% 29.78 in 10.0 mi East 10.4 mph - N/A   Light Drizzle
2:54 PM 33.8 °F 23.9 °F 26.6 °F 75% 29.76 in 10.0 mi East 15.0 mph - N/A Rain Light Rain
3:14 PM 33.8 °F 24.8 °F 26.6 °F 75% 29.74 in 10.0 mi East 12.7 mph - N/A   Overcast
3:34 PM 35.6 °F 29.2 °F 26.6 °F 70% 29.75 in 10.0 mi East 8.1 mph 17.3 mph N/A   Overcast
4:13 PM 35.6 °F 27.5 °F 26.6 °F 70% 29.72 in 10.0 mi East 11.5 mph - N/A   Light Drizzle
4:34 PM 35.6 °F 27.1 °F 26.6 °F 70% 29.69 in 10.0 mi ENE 12.7 mph - N/A   Light Drizzle
4:54 PM 35.6 °F 27.5 °F 28.4 °F 75% 29.67 in 10.0 mi ENE 11.5 mph - N/A Rain Light Rain
5:13 PM 33.8 °F 25.8 °F 28.4 °F 81% 29.66 in 10.0 mi ENE 10.4 mph - N/A Rain Rain
5:34 PM 35.6 °F 28.0 °F 28.4 °F 75% 29.66 in 10.0 mi ENE 10.4 mph - N/A   Overcast
5:54 PM 35.6 °F 27.5 °F 28.4 °F 75% 29.65 in 10.0 mi ENE 11.5 mph - N/A   Overcast
6:13 PM 35.6 °F 27.1 °F 26.6 °F 70% 29.64 in 10.0 mi ENE 12.7 mph 18.4 mph N/A   Overcast
6:34 PM 35.6 °F 25.9 °F 26.6 °F 70% 29.62 in 10.0 mi ENE 16.1 mph 21.9 mph N/A   Overcast
6:54 PM 35.6 °F 27.1 °F 24.8 °F 65% 29.61 in 10.0 mi ENE 12.7 mph 21.9 mph N/A   Light Drizzle
7:13 PM 35.6 °F 26.2 °F 26.6 °F 70% 29.60 in 10.0 mi ENE 15.0 mph 18.4 mph N/A   Drizzle
7:34 PM 33.8 °F 25.3 °F 26.6 °F 75% 29.59 in 10.0 mi ENE 11.5 mph - N/A   Light Drizzle
7:54 PM 33.8 °F 24.8 °F 26.6 °F 75% 29.58 in 10.0 mi ENE 12.7 mph - N/A   Overcast
8:13 PM 33.8 °F 25.8 °F 26.6 °F 75% 29.58 in 10.0 mi ENE 10.4 mph - N/A Rain Light Rain
8:34 PM 33.8 °F 27.0 °F 28.4 °F 81% 29.58 in 7.0 mi ENE 8.1 mph - N/A Rain Light Rain
8:54 PM 33.8 °F 26.4 °F 28.4 °F 81% 29.58 in 5.0 mi NE 9.2 mph - N/A Snow Light Snow
9:13 PM 33.8 °F 27.7 °F 28.4 °F 81% 29.59 in 4.0 mi NNE 6.9 mph - N/A Snow Light Snow
9:34 PM 32.0 °F 26.4 °F 30.2 °F 93% 29.60 in 3.0 mi NNW 5.8 mph - N/A Snow Light Snow
9:54 PM 32.0 °F 26.4 °F 30.2 °F 93% 29.60 in 2.0 mi NNW 5.8 mph - N/A Snow Light Snow
10:13 PM 32.0 °F 24.8 °F 30.2 °F 93% 29.60 in 1.8 mi North 8.1 mph - N/A Snow Light Snow
10:34 PM 32.0 °F 22.5 °F 30.2 °F 93% 29.60 in 1.8 mi NE 12.7 mph - N/A Snow Light Snow
10:54 PM 32.0 °F 23.6 °F 30.2 °F 93% 29.59 in 1.8 mi NNE 10.4 mph - 0.01 in Snow Light Snow
11:14 PM 32.0 °F 23.0 °F 30.2 °F 93% 29.59 in 1.0 mi NNE 11.5 mph - N/A Snow Light Snow
11:34 PM 32.0 °F 23.6 °F 30.2 °F 93% 29.58 in 0.8 mi NNE 10.4 mph - 0.01 in Snow Snow
11:54 PM 32.0 °F 23.6 °F 30.2 °F 93% 29.58 in 1.0 mi NNE 10.4 mph - 0.02 in Snow Snow